Time;durP1;ratioP1;P1;durP2;ratioP2;P2;SDS_P1;SDS_P2;PMS_P1;PMS_P2;Temp;Humidity;BMP_temperature;BMP_pressure;BME280_temperature;BME280_humidity;BME280_pressure;Samples;Min_cycle;Max_cycle;Signal;HPM_P1;HPM_P2
2022/05/05 00:01:54;;;;;;;;;;;;;;;5.83;88.75;100035.63;5034518;28;842;-54
2022/05/05 00:04:22;;;;;;;;;;;;;;;5.79;88.74;100039.47;5034452;28;849;-54
2022/05/05 00:06:51;;;;;;;;;;;;;;;5.77;89.42;100048.03;5034413;28;827;-54
2022/05/05 00:09:18;;;;;;;;;;;;;;;5.71;89.54;100044.00;5034730;28;873;-55
2022/05/05 00:14:32;;;;;;;;;;;;;;;5.65;89.73;100049.00;5034181;28;1999;-53
2022/05/05 00:17:00;;;;;;;;;;;;;;;5.64;89.48;100041.94;5034118;28;855;-55
2022/05/05 00:19:28;;;;;;;;;;;;;;;5.64;89.57;100052.91;5034860;28;830;-55
2022/05/05 00:21:55;;;;;;;;;;;;;;;5.69;90.13;100049.06;5034945;28;807;-54
2022/05/05 00:24:20;;;;;;;;;;;;;;;5.70;89.98;100045.19;5034585;28;842;-55
2022/05/05 00:26:47;;;;;;;;;;;;;;;5.68;89.98;100047.50;5033728;28;1358;-54
2022/05/05 00:29:15;;;;;;;;;;;;;;;5.67;90.38;100041.19;5033950;28;882;-55
2022/05/05 00:31:43;;;;;;;;;;;;;;;5.72;90.32;100045.63;5034344;28;803;-56
2022/05/05 00:34:10;;;;;;;;;;;;;;;5.73;90.33;100047.97;5034571;28;1910;-55
2022/05/05 00:36:37;;;;;;;;;;;;;;;5.73;90.52;100052.66;5034301;28;826;-56
2022/05/05 00:39:04;;;;;;;;;;;;;;;5.74;90.61;100051.53;5033952;28;858;-54
2022/05/05 00:41:39;;;;;;;;;;;;;;;5.77;90.47;100045.31;5033909;28;900;-55
2022/05/05 00:44:06;;;;;;;;;;;;;;;5.81;90.10;100048.13;5033607;28;910;-55
2022/05/05 00:46:33;;;;;;;;;;;;;;;5.95;89.91;100047.59;5033943;28;834;-56
2022/05/05 00:49:01;;;;;;;;;;;;;;;6.04;88.92;100046.22;5033586;28;787;-54
2022/05/05 01:03:38;;;;;;;;;;;;;;;5.65;90.17;100053.69;5033689;28;641;-56
2022/05/05 01:06:05;;;;;;;;;;;;;;;5.56;90.47;100044.91;5032706;28;961;-55
2022/05/05 01:08:36;;;;;;;;;;;;;;;5.47;90.54;100042.38;5033190;28;905;-55
2022/05/05 01:11:03;;;;;;;;;;;;;;;5.35;91.04;100058.97;5015600;28;877;-55
2022/05/05 01:13:30;;;;;;;;;;;;;;;5.18;91.39;100050.03;5033137;28;1989;-54
2022/05/05 01:15:56;;;;;;;;;;;;;;;5.06;91.38;100047.44;5033082;28;894;-52
2022/05/05 01:18:23;;;;;;;;;;;;;;;4.98;92.66;100049.22;5015393;28;974;-56
2022/05/05 01:20:52;;;;;;;;;;;;;;;4.99;93.22;100056.28;5033051;28;842;-56
2022/05/05 01:23:19;;;;;;;;;;;;;;;5.15;93.28;100058.19;5032838;28;917;-56
2022/05/05 01:28:33;;;;;;;;;;;;;;;5.52;91.72;100061.28;5032655;28;1174;-56
2022/05/05 01:31:00;;;;;;;;;;;;;;;5.58;90.64;100062.56;5032740;28;958;-56
2022/05/05 01:33:28;;;;;;;;;;;;;;;5.50;90.80;100061.66;5032643;28;1918;-56
2022/05/05 01:35:55;;;;;;;;;;;;;;;5.48;90.99;100054.94;5032783;28;790;-55
2022/05/05 01:38:26;;;;;;;;;;;;;;;5.45;91.36;100064.69;5032726;28;917;-55
2022/05/05 01:40:53;;;;;;;;;;;;;;;5.45;91.12;100058.41;5032715;28;879;-55
2022/05/05 01:43:23;;;;;;;;;;;;;;;5.38;91.71;100053.56;5032877;28;835;-55
2022/05/05 01:45:49;;;;;;;;;;;;;;;5.36;92.24;100058.63;5032582;28;838;-54
2022/05/05 01:48:16;;;;;;;;;;;;;;;5.38;93.14;100067.28;5032500;28;879;-54
2022/05/05 01:50:42;;;;;;;;;;;;;;;5.37;93.09;100060.19;5032377;28;810;-55
2022/05/05 01:53:09;;;;;;;;;;;;;;;5.31;93.33;100067.94;5032347;28;934;-57
2022/05/05 01:55:35;;;;;;;;;;;;;;;5.31;93.69;100067.13;5032203;28;1939;-57
2022/05/05 01:58:02;;;;;;;;;;;;;;;5.34;93.50;100066.41;5032596;28;850;-55
2022/05/05 02:00:29;;;;;;;;;;;;;;;5.36;93.61;100071.53;5032283;28;843;-56
2022/05/05 02:02:56;;;;;;;;;;;;;;;5.37;94.01;100060.19;5032147;28;866;-55
2022/05/05 02:05:23;;;;;;;;;;;;;;;5.34;93.89;100066.41;5032075;28;931;-54
2022/05/05 02:07:51;;;;;;;;;;;;;;;5.30;94.07;100066.34;5032173;28;799;-55
2022/05/05 02:10:20;;;;;;;;;;;;;;;5.17;93.68;100062.16;5032107;28;877;-55
2022/05/05 02:12:48;;;;;;;;;;;;;;;5.03;94.54;100068.09;5032057;28;823;-55
2022/05/05 02:15:14;;;;;;;;;;;;;;;4.93;95.10;100071.44;5032000;28;1968;-54
2022/05/05 02:17:41;;;;;;;;;;;;;;;5.00;95.96;100076.28;5031087;28;942;-55
2022/05/05 02:20:08;;;;;;;;;;;;;;;5.10;95.82;100067.50;5031937;28;1006;-53
2022/05/05 02:22:35;;;;;;;;;;;;;;;5.17;95.74;100064.09;5031853;28;834;-55
2022/05/05 02:25:02;;;;;;;;;;;;;;;5.22;95.54;100072.03;5031812;28;1035;-55
2022/05/05 02:27:28;;;;;;;;;;;;;;;5.24;94.90;100073.25;5010648;28;1345;-56
2022/05/05 02:29:55;;;;;;;;;;;;;;;5.23;94.57;100070.91;5012013;28;891;-55
2022/05/05 02:32:22;;;;;;;;;;;;;;;5.19;95.08;100075.50;5011988;28;835;-55
2022/05/05 02:34:49;;;;;;;;;;;;;;;5.15;95.22;100071.88;5011977;28;1972;-56
2022/05/05 02:40:00;;;;;;;;;;;;;;;5.21;95.54;100064.97;5011902;28;622;-55
2022/05/05 02:42:27;;;;;;;;;;;;;;;5.27;95.24;100066.25;5011931;28;811;-56
2022/05/05 02:44:53;;;;;;;;;;;;;;;5.39;95.17;100065.34;5011856;28;942;-56
2022/05/05 02:47:20;;;;;;;;;;;;;;;5.52;94.75;100075.00;5011883;28;870;-56
2022/05/05 02:49:47;;;;;;;;;;;;;;;5.64;94.37;100071.31;5011845;28;898;-53
2022/05/05 02:52:13;;;;;;;;;;;;;;;5.77;93.74;100080.19;5011877;28;822;-55
2022/05/05 02:54:52;;;;;;;;;;;;;;;5.82;93.13;100075.16;5011716;28;1973;-55
2022/05/05 02:57:20;;;;;;;;;;;;;;;5.86;92.62;100081.50;5012555;28;744;-55
2022/05/05 02:59:47;;;;;;;;;;;;;;;5.84;92.17;100078.34;5011911;28;842;-56
2022/05/05 03:02:14;;;;;;;;;;;;;;;5.81;92.58;100079.09;5011789;28;874;-56
2022/05/05 03:04:41;;;;;;;;;;;;;;;5.79;92.67;100080.59;5011878;28;908;-56
2022/05/05 03:07:08;;;;;;;;;;;;;;;5.78;92.53;100082.53;5010756;28;811;-56
2022/05/05 03:09:34;;;;;;;;;;;;;;;5.75;92.86;100086.00;5011846;28;834;-55
2022/05/05 03:12:01;;;;;;;;;;;;;;;5.64;93.51;100080.31;5010727;28;1247;-56
2022/05/05 03:14:28;;;;;;;;;;;;;;;5.59;93.93;100082.56;5011905;28;1961;-56
2022/05/05 03:16:55;;;;;;;;;;;;;;;5.55;94.27;100081.69;5011904;28;790;-55
2022/05/05 03:19:22;;;;;;;;;;;;;;;5.54;93.77;100080.91;5012183;28;831;-57
2022/05/05 03:21:48;;;;;;;;;;;;;;;5.57;94.48;100073.91;5011814;28;775;-56
2022/05/05 03:24:15;;;;;;;;;;;;;;;5.60;94.60;100076.72;5012247;28;838;-55
2022/05/05 03:26:41;;;;;;;;;;;;;;;5.66;94.46;100085.47;5014031;28;1114;-56
2022/05/05 03:29:08;;;;;;;;;;;;;;;5.71;94.10;100090.63;5032214;28;883;-56
2022/05/05 03:31:35;;;;;;;;;;;;;;;5.68;94.23;100091.38;5035113;28;862;-57
2022/05/05 03:34:02;;;;;;;;;;;;;;;5.68;94.44;100096.88;5034920;28;1969;-55
2022/05/05 03:36:28;;;;;;;;;;;;;;;5.70;94.04;100087.09;5035014;28;827;-55
2022/05/05 03:38:55;;;;;;;;;;;;;;;5.81;94.27;100087.31;5034883;28;822;-55
2022/05/05 03:41:23;;;;;;;;;;;;;;;5.92;93.25;100091.03;5034867;28;917;-55
2022/05/05 03:43:49;;;;;;;;;;;;;;;6.05;92.42;100094.44;5034825;28;830;-55
2022/05/05 03:46:16;;;;;;;;;;;;;;;6.17;91.89;100098.19;5034758;28;847;-57
2022/05/05 03:48:43;;;;;;;;;;;;;;;6.23;91.82;100094.78;5034753;28;869;-56
2022/05/05 03:51:10;;;;;;;;;;;;;;;6.30;91.23;100096.84;5034728;28;881;-57
2022/05/05 03:53:37;;;;;;;;;;;;;;;6.39;91.29;100093.84;5034559;28;1894;-56
2022/05/05 03:56:04;;;;;;;;;;;;;;;6.52;91.91;100101.50;5034583;28;908;-57
2022/05/05 03:58:31;;;;;;;;;;;;;;;6.64;91.69;100103.28;5034543;28;871;-57
2022/05/05 04:00:58;;;;;;;;;;;;;;;6.75;90.76;100103.44;5034508;28;984;-56
2022/05/05 04:03:36;;;;;;;;;;;;;;;6.88;90.23;100098.53;5034532;28;878;-56
2022/05/05 04:06:05;;;;;;;;;;;;;;;7.08;90.46;100104.69;5034363;28;922;-56
2022/05/05 04:08:32;;;;;;;;;;;;;;;7.30;88.72;100108.56;5016524;28;1322;-55
2022/05/05 04:10:59;;;;;;;;;;;;;;;7.42;89.24;100107.50;5034653;28;862;-55
2022/05/05 04:13:25;;;;;;;;;;;;;;;7.43;87.64;100109.88;5034644;28;878;-55
2022/05/05 04:15:52;;;;;;;;;;;;;;;7.48;88.62;100117.03;5034175;28;1881;-54
2022/05/05 04:18:19;;;;;;;;;;;;;;;7.55;87.77;100117.91;5034248;28;819;-55
2022/05/05 04:20:48;;;;;;;;;;;;;;;7.66;88.62;100118.03;5016511;28;883;-55
2022/05/05 04:23:15;;;;;;;;;;;;;;;7.79;87.42;100104.81;5034038;28;914;-56
2022/05/05 04:25:42;;;;;;;;;;;;;;;7.95;87.66;100121.88;5034274;28;1042;-55
2022/05/05 04:28:10;;;;;;;;;;;;;;;8.15;87.73;100121.69;5033762;28;1228;-55
2022/05/05 04:30:38;;;;;;;;;;;;;;;8.35;87.08;100131.34;5033996;28;866;-55
2022/05/05 04:33:05;;;;;;;;;;;;;;;8.57;86.17;100128.81;5033963;28;1093;-55
2022/05/05 04:35:31;;;;;;;;;;;;;;;8.75;84.94;100135.25;5033855;28;1977;-54
2022/05/05 04:37:58;;;;;;;;;;;;;;;8.79;83.91;100138.84;5033753;28;873;-56
2022/05/05 04:40:25;;;;;;;;;;;;;;;8.84;83.83;100132.16;5033238;28;819;-55
2022/05/05 04:42:52;;;;;;;;;;;;;;;8.91;83.75;100134.97;5033358;28;927;-55
2022/05/05 04:45:19;;;;;;;;;;;;;;;9.03;84.10;100138.63;5016295;28;799;-55
2022/05/05 04:47:46;;;;;;;;;;;;;;;9.16;82.95;100146.16;5033566;28;918;-54
2022/05/05 04:50:12;;;;;;;;;;;;;;;9.25;82.25;100145.03;5033671;28;881;-55
2022/05/05 04:52:39;;;;;;;;;;;;;;;9.41;82.01;100145.53;5033889;28;850;-55
2022/05/05 04:55:05;;;;;;;;;;;;;;;9.61;82.50;100127.47;5033473;28;1982;-55
2022/05/05 04:57:34;;;;;;;;;;;;;;;9.81;80.74;100136.25;5033452;28;898;-54
2022/05/05 05:00:00;;;;;;;;;;;;;;;10.07;80.63;100133.53;5033435;28;882;-56
2022/05/05 05:02:27;;;;;;;;;;;;;;;10.25;78.66;100134.38;5033370;28;818;-56
2022/05/05 05:04:54;;;;;;;;;;;;;;;10.40;78.69;100144.28;5033448;28;890;-55
2022/05/05 05:07:21;;;;;;;;;;;;;;;10.73;77.94;100127.72;5033143;28;942;-55
2022/05/05 05:09:50;;;;;;;;;;;;;;;11.18;76.17;100136.34;5033293;28;822;-55
2022/05/05 05:12:16;;;;;;;;;;;;;;;11.95;74.36;100132.94;5033410;28;897;-56
2022/05/05 05:14:43;;;;;;;;;;;;;;;12.71;72.09;100136.00;5033314;28;1954;-55
2022/05/05 05:17:10;;;;;;;;;;;;;;;13.23;70.90;100135.94;5033137;28;857;-55
2022/05/05 05:19:37;;;;;;;;;;;;;;;13.60;72.29;100135.13;5033135;28;811;-55
2022/05/05 05:22:05;;;;;;;;;;;;;;;14.09;73.26;100124.56;5033061;28;870;-56
2022/05/05 05:24:32;;;;;;;;;;;;;;;14.81;72.92;100123.50;5032821;28;914;-55
2022/05/05 05:27:00;;;;;;;;;;;;;;;15.27;70.02;100127.44;5033084;28;1367;-55
2022/05/05 05:29:25;;;;;;;;;;;;;;;15.84;67.79;100128.31;5032465;28;928;-56
2022/05/05 05:31:52;;;;;;;;;;;;;;;16.44;61.03;100128.16;5032877;28;803;-56
2022/05/05 05:34:19;;;;;;;;;;;;;;;16.92;58.49;100129.41;5032725;28;1969;-56
2022/05/05 05:36:49;;;;;;;;;;;;;;;17.29;59.35;100135.63;5032354;28;810;-56
2022/05/05 05:39:19;;;;;;;;;;;;;;;18.07;56.25;100145.81;5032458;28;866;-56
2022/05/05 05:53:57;;;;;;;;;;;;;;;21.81;46.84;100136.13;5032736;28;1887;-56
2022/05/05 05:56:24;;;;;;;;;;;;;;;22.10;49.26;100146.03;5032515;28;829;-56
2022/05/05 05:58:51;;;;;;;;;;;;;;;23.03;48.37;100144.38;5032335;28;930;-56
2022/05/05 06:01:18;;;;;;;;;;;;;;;23.61;49.54;100147.03;5032380;28;847;-56
2022/05/05 06:03:54;;;;;;;;;;;;;;;24.07;46.60;100149.41;5032376;28;815;-57
2022/05/05 06:06:21;;;;;;;;;;;;;;;24.11;43.40;100141.53;5032085;28;833;-55
2022/05/05 06:08:47;;;;;;;;;;;;;;;23.59;42.20;100146.75;5031875;28;838;-54
2022/05/05 06:11:16;;;;;;;;;;;;;;;23.10;39.35;100154.50;5032549;28;891;-55
2022/05/05 06:13:42;;;;;;;;;;;;;;;22.48;40.36;100155.94;5031958;28;1898;-55
2022/05/05 06:16:12;;;;;;;;;;;;;;;22.15;41.11;100159.50;5032130;28;799;-56
2022/05/05 06:18:38;;;;;;;;;;;;;;;21.81;41.27;100158.63;5031681;28;937;-55
2022/05/05 06:21:06;;;;;;;;;;;;;;;21.44;41.88;100157.88;5031568;28;859;-55
2022/05/05 06:23:32;;;;;;;;;;;;;;;21.71;44.14;100161.94;5031948;28;822;-56
2022/05/05 06:25:59;;;;;;;;;;;;;;;22.41;45.04;100154.25;5032095;28;890;-56
2022/05/05 06:28:26;;;;;;;;;;;;;;;22.87;43.46;100158.84;5031609;28;1369;-56
2022/05/05 06:30:53;;;;;;;;;;;;;;;22.33;40.22;100161.47;5031735;28;903;-56
2022/05/05 06:45:31;;;;;;;;;;;;;;;20.26;47.37;100173.97;5031781;28;713;-56
2022/05/05 06:47:58;;;;;;;;;;;;;;;19.94;48.16;100178.78;5032001;28;1213;-55
2022/05/05 06:50:28;;;;;;;;;;;;;;;19.97;46.34;100189.88;5031786;28;930;-52
2022/05/05 06:52:54;;;;;;;;;;;;;;;19.45;47.15;100198.97;5031056;28;949;-55
2022/05/05 06:55:20;;;;;;;;;;;;;;;18.76;48.66;100200.44;5031413;28;1959;-56
2022/05/05 06:57:47;;;;;;;;;;;;;;;18.59;50.43;100204.59;5031600;28;1063;-55
2022/05/05 07:00:13;;;;;;;;;;;;;;;18.55;49.66;100205.47;5031622;28;815;-55
2022/05/05 07:15:06;;;;;;;;;;;;;;;19.41;48.46;100212.31;5035363;28;1910;-55
2022/05/05 07:17:34;;;;;;;;;;;;;;;19.59;49.47;100218.09;5035278;28;934;-56
2022/05/05 07:20:00;;;;;;;;;;;;;;;21.15;49.27;100220.94;5035251;28;918;-56
2022/05/05 07:22:27;;;;;;;;;;;;;;;23.47;42.64;100230.38;5035305;28;835;-57
2022/05/05 07:24:54;;;;;;;;;;;;;;;24.91;43.21;100220.59;5035265;28;984;-56
2022/05/05 07:27:21;;;;;;;;;;;;;;;26.03;40.25;100234.56;5035133;28;1202;-57
2022/05/05 07:29:48;;;;;;;;;;;;;;;24.76;39.91;100228.34;5035085;28;965;-56
2022/05/05 07:32:14;;;;;;;;;;;;;;;24.14;43.91;100236.53;5035144;28;1052;-55
2022/05/05 07:34:42;;;;;;;;;;;;;;;24.09;43.67;100234.41;5034909;28;1969;-56
2022/05/05 07:37:09;;;;;;;;;;;;;;;24.22;40.60;100242.59;5034753;28;922;-56
2022/05/05 07:39:34;;;;;;;;;;;;;;;24.56;44.29;100240.34;5034885;28;917;-56
2022/05/05 07:42:00;;;;;;;;;;;;;;;25.93;39.04;100244.53;5018831;28;1370;-56
2022/05/05 07:44:26;;;;;;;;;;;;;;;26.11;39.21;100240.56;5034118;28;811;-56
2022/05/05 07:46:51;;;;;;;;;;;;;;;27.33;36.06;100247.66;5033712;28;775;-56
2022/05/05 07:49:19;;;;;;;;;;;;;;;26.98;31.55;100248.75;5034429;28;830;-55
2022/05/05 07:51:45;;;;;;;;;;;;;;;27.10;31.24;100249.63;5034610;28;922;-56
2022/05/05 07:56:57;;;;;;;;;;;;;;;27.67;28.36;100247.81;5034708;28;641;-55
2022/05/05 07:59:24;;;;;;;;;;;;;;;27.64;29.58;100254.53;5034628;28;867;-56
2022/05/05 08:01:50;;;;;;;;;;;;;;;28.11;29.32;100243.56;5034609;28;869;-56
2022/05/05 08:04:17;;;;;;;;;;;;;;;28.07;28.59;100231.66;5034419;28;910;-56
2022/05/05 08:06:44;;;;;;;;;;;;;;;28.37;26.11;100257.53;5034558;28;897;-55
2022/05/05 08:09:11;;;;;;;;;;;;;;;28.08;28.34;100256.72;5034647;28;937;-56
2022/05/05 08:11:38;;;;;;;;;;;;;;;27.73;29.08;100259.19;5034593;28;858;-56
2022/05/05 08:14:05;;;;;;;;;;;;;;;27.44;26.35;100244.91;5034434;28;2016;-56
2022/05/05 08:28:42;;;;;;;;;;;;;;;26.21;27.78;100265.41;5021223;28;1463;-56
2022/05/05 08:31:10;;;;;;;;;;;;;;;26.27;27.44;100266.22;5029629;28;1448;-56
2022/05/05 08:33:38;;;;;;;;;;;;;;;26.37;28.51;100263.22;5033758;28;971;-56
2022/05/05 08:36:05;;;;;;;;;;;;;;;26.51;29.06;100255.88;5033775;28;1934;-55
2022/05/05 08:38:32;;;;;;;;;;;;;;;25.98;27.70;100260.78;5034007;28;914;-56
2022/05/05 08:41:00;;;;;;;;;;;;;;;25.69;29.37;100259.69;5034498;28;1134;-56
2022/05/05 08:43:26;;;;;;;;;;;;;;;25.84;28.64;100277.34;5033960;28;1206;-56
2022/05/05 08:45:55;;;;;;;;;;;;;;;25.08;29.09;100271.72;5033791;28;970;-57
2022/05/05 08:48:22;;;;;;;;;;;;;;;24.01;29.59;100279.19;5016154;28;1481;-56
2022/05/05 08:51:00;;;;;;;;;;;;;;;22.17;31.85;100278.03;5033546;28;853;-56
2022/05/05 08:53:35;;;;;;;;;;;;;;;20.98;35.16;100285.06;5033629;28;895;-56
2022/05/05 08:56:03;;;;;;;;;;;;;;;21.48;36.92;100287.88;5033409;28;1885;-56
2022/05/05 08:58:30;;;;;;;;;;;;;;;22.58;34.85;100281.41;5033883;28;767;-56
2022/05/05 09:00:57;;;;;;;;;;;;;;;23.06;34.44;100277.94;5033486;28;889;-55
2022/05/05 09:03:25;;;;;;;;;;;;;;;24.31;30.21;100267.13;5033972;28;807;-55
2022/05/05 09:05:52;;;;;;;;;;;;;;;24.55;29.81;100261.41;5016012;28;850;-55
2022/05/05 09:08:33;;;;;;;;;;;;;;;24.22;29.63;100262.38;5033527;28;896;-55
2022/05/05 09:11:08;;;;;;;;;;;;;;;24.33;29.11;100256.13;5033287;28;830;-55
2022/05/05 09:13:36;;;;;;;;;;;;;;;25.06;29.23;100268.59;5033422;28;854;-56
2022/05/05 09:16:04;;;;;;;;;;;;;;;25.35;27.91;100264.13;5033247;28;1882;-55
2022/05/05 09:18:32;;;;;;;;;;;;;;;24.15;28.47;100266.31;5033021;28;957;-56
2022/05/05 09:21:01;;;;;;;;;;;;;;;23.77;30.45;100273.59;5033254;28;866;-56
2022/05/05 09:23:32;;;;;;;;;;;;;;;24.11;29.65;100265.78;5033024;28;581;-56
2022/05/05 09:25:59;;;;;;;;;;;;;;;24.37;31.87;100268.00;5033184;28;924;-56
2022/05/05 09:28:28;;;;;;;;;;;;;;;24.43;28.75;100266.84;5032512;28;862;-56
2022/05/05 09:31:01;;;;;;;;;;;;;;;23.88;28.61;100275.09;5018443;28;1278;-55
2022/05/05 09:33:44;;;;;;;;;;;;;;;22.77;31.67;100264.44;5012693;28;796;-55
2022/05/05 09:36:11;;;;;;;;;;;;;;;22.12;32.78;100275.06;5013333;28;846;-54
2022/05/05 09:38:56;;;;;;;;;;;;;;;21.81;32.10;100265.56;5013296;28;929;-55
2022/05/05 09:41:28;;;;;;;;;;;;;;;21.84;35.75;100260.25;5012982;28;866;-55
2022/05/05 09:43:56;;;;;;;;;;;;;;;22.67;35.45;100257.28;4995373;28;1442;-54
2022/05/05 09:46:29;;;;;;;;;;;;;;;23.12;31.50;100278.84;5012877;28;854;-55
2022/05/05 09:49:08;;;;;;;;;;;;;;;22.87;32.43;100268.75;5032619;28;927;-55
2022/05/05 09:51:37;;;;;;;;;;;;;;;22.05;34.10;100269.75;5032745;28;870;-56
2022/05/05 10:28:00;;;;;;;;;;;;;;;22.70;31.03;100279.63;5021354;26;2599;-55
2022/05/05 10:30:36;;;;;;;;;;;;;;;23.00;30.88;100279.81;5052027;28;854;-53
2022/05/05 10:33:08;;;;;;;;;;;;;;;22.84;30.73;100281.00;5051682;28;790;-55
2022/05/05 10:35:39;;;;;;;;;;;;;;;23.23;30.20;100278.31;5033766;28;1914;-54
2022/05/05 10:38:24;;;;;;;;;;;;;;;23.89;30.41;100276.63;5051317;28;878;-56
2022/05/05 10:40:51;;;;;;;;;;;;;;;24.11;29.72;100262.94;5051361;28;845;-55
2022/05/05 10:43:29;;;;;;;;;;;;;;;25.11;29.58;100261.47;5051445;28;902;-53
2022/05/05 10:45:56;;;;;;;;;;;;;;;26.22;30.07;100269.00;5051414;28;890;-54
2022/05/05 10:48:28;;;;;;;;;;;;;;;26.16;29.50;100276.66;5051559;28;862;-56
2022/05/05 10:51:05;;;;;;;;;;;;;;;25.14;28.49;100271.81;5051110;28;882;-55
2022/05/05 10:53:40;;;;;;;;;;;;;;;24.08;29.57;100275.19;5051661;28;1362;-55
2022/05/05 10:56:27;;;;;;;;;;;;;;;23.99;29.55;100284.53;5050963;28;1878;-55
2022/05/05 10:59:06;;;;;;;;;;;;;;;23.46;29.02;100285.22;5044181;28;1749;-56
2022/05/05 11:01:36;;;;;;;;;;;;;;;22.90;29.97;100281.91;5051392;28;911;-55
2022/05/05 11:04:09;;;;;;;;;;;;;;;22.40;29.82;100287.88;5033614;28;1276;-56
2022/05/05 11:09:37;;;;;;;;;;;;;;;22.64;30.71;100287.19;5051358;28;719;-55
2022/05/05 11:12:21;;;;;;;;;;;;;;;22.81;30.90;100282.72;5051429;28;871;-55
2022/05/05 11:23:40;;;;;;;;;;;;;;;22.83;31.67;100280.22;5051453;28;683;-56
2022/05/05 11:26:08;;;;;;;;;;;;;;;22.76;30.63;100276.94;5051444;28;938;-56
2022/05/05 11:28:36;;;;;;;;;;;;;;;22.63;31.68;100277.94;5050898;28;1173;-56
2022/05/05 11:31:03;;;;;;;;;;;;;;;22.57;31.78;100277.00;5050838;28;866;-56
2022/05/05 11:33:29;;;;;;;;;;;;;;;22.41;31.50;100283.78;5051000;28;927;-56
2022/05/05 11:36:02;;;;;;;;;;;;;;;22.31;31.78;100284.28;5050988;28;1966;-57
2022/05/05 11:38:29;;;;;;;;;;;;;;;22.98;32.62;100276.69;5050913;28;886;-56
2022/05/05 11:41:00;;;;;;;;;;;;;;;24.40;30.58;100272.69;5050996;28;869;-56
2022/05/05 11:46:11;;;;;;;;;;;;;;;25.74;28.64;100256.13;5050955;28;688;-56
2022/05/05 11:48:37;;;;;;;;;;;;;;;25.33;28.29;100261.81;5051003;28;806;-56
2022/05/05 11:51:06;;;;;;;;;;;;;;;24.59;30.34;100257.09;5053014;28;880;-56
2022/05/05 11:53:33;;;;;;;;;;;;;;;24.27;30.47;100270.16;5054546;28;930;-56
2022/05/05 11:56:00;;;;;;;;;;;;;;;24.98;29.17;100265.41;5054611;28;1898;-56
2022/05/05 12:04:01;;;;;;;;;;;;;;;24.24;29.57;100269.09;5054416;28;668;-56
2022/05/05 12:06:28;;;;;;;;;;;;;;;24.97;29.67;100265.91;5054418;28;865;-56
2022/05/05 12:08:58;;;;;;;;;;;;;;;25.06;29.29;100258.06;5036638;28;994;-56
2022/05/05 12:11:31;;;;;;;;;;;;;;;25.46;27.59;100252.97;5054164;28;870;-57
2022/05/05 12:14:02;;;;;;;;;;;;;;;24.83;28.66;100248.47;5054433;28;1944;-56
2022/05/05 12:16:30;;;;;;;;;;;;;;;24.44;29.03;100261.97;5054652;28;807;-56
2022/05/05 12:18:57;;;;;;;;;;;;;;;23.65;29.26;100260.50;5036691;28;936;-56
2022/05/05 12:21:24;;;;;;;;;;;;;;;23.14;30.40;100253.78;5054295;28;813;-56
2022/05/05 12:23:59;;;;;;;;;;;;;;;23.11;30.37;100265.22;5054503;28;906;-56
2022/05/05 12:39:52;;;;;;;;;;;;;;;22.65;30.72;100256.97;5053044;28;1126;-56
2022/05/05 12:42:20;;;;;;;;;;;;;;;23.66;31.14;100247.94;5053703;28;877;-57
2022/05/05 12:44:49;;;;;;;;;;;;;;;24.30;28.91;100242.97;5053751;28;1000;-56
2022/05/05 12:47:25;;;;;;;;;;;;;;;24.28;27.97;100240.63;5053574;28;954;-56
2022/05/05 12:49:52;;;;;;;;;;;;;;;24.80;27.51;100246.63;5035724;28;2185;-56
2022/05/05 13:00:55;;;;;;;;;;;;;;;23.78;29.45;100255.38;5053455;28;696;-56
2022/05/05 13:03:23;;;;;;;;;;;;;;;24.48;28.28;100251.25;5052540;28;909;-56
2022/05/05 13:05:50;;;;;;;;;;;;;;;25.10;28.31;100240.13;5053997;28;783;-57
2022/05/05 13:08:17;;;;;;;;;;;;;;;25.52;27.69;100242.50;5053422;28;848;-56
2022/05/05 13:13:54;;;;;;;;;;;;;;;24.52;27.59;100251.09;5053195;28;679;-56
2022/05/05 13:16:21;;;;;;;;;;;;;;;24.94;27.10;100247.84;5035442;28;1188;-56
2022/05/05 13:18:48;;;;;;;;;;;;;;;24.72;27.31;100251.13;5053118;28;866;-56
2022/05/05 13:21:14;;;;;;;;;;;;;;;24.40;27.31;100255.72;5053437;28;948;-57
2022/05/05 13:23:41;;;;;;;;;;;;;;;23.70;32.07;100271.09;5053374;28;803;-55
2022/05/05 13:26:10;;;;;;;;;;;;;;;22.77;34.48;100268.03;5053332;28;918;-56
2022/05/05 13:28:37;;;;;;;;;;;;;;;23.12;36.79;100259.13;5053131;28;893;-56
2022/05/05 13:31:04;;;;;;;;;;;;;;;23.84;35.02;100264.75;5052957;28;888;-56
2022/05/05 13:33:31;;;;;;;;;;;;;;;23.74;34.76;100266.06;5053082;28;783;-56
2022/05/05 13:35:57;;;;;;;;;;;;;;;23.35;36.31;100268.84;5052778;28;1989;-56
2022/05/05 13:38:25;;;;;;;;;;;;;;;22.65;37.36;100260.56;5052729;28;1362;-56
2022/05/05 13:40:52;;;;;;;;;;;;;;;21.82;38.20;100267.09;5052621;28;950;-56
2022/05/05 13:43:19;;;;;;;;;;;;;;;21.34;39.82;100271.59;5052832;28;956;-56
2022/05/05 13:45:45;;;;;;;;;;;;;;;21.90;39.62;100266.81;5052780;28;815;-56
2022/05/05 13:48:12;;;;;;;;;;;;;;;22.34;39.59;100266.44;5052631;28;886;-56
2022/05/05 13:50:38;;;;;;;;;;;;;;;21.48;39.34;100271.00;5053192;28;837;-56
2022/05/05 13:53:05;;;;;;;;;;;;;;;20.63;40.85;100269.63;5053084;28;854;-56
2022/05/05 13:55:35;;;;;;;;;;;;;;;20.25;41.88;100265.00;5052668;28;1922;-56
2022/05/05 13:58:02;;;;;;;;;;;;;;;19.88;41.94;100275.97;5052446;28;838;-56
2022/05/05 14:00:30;;;;;;;;;;;;;;;19.59;43.65;100274.16;5052253;28;870;-56
2022/05/05 14:02:58;;;;;;;;;;;;;;;19.73;44.59;100272.91;5052116;28;898;-55
2022/05/05 14:05:25;;;;;;;;;;;;;;;20.90;43.66;100278.16;5052204;28;878;-56
2022/05/05 14:13:24;;;;;;;;;;;;;;;21.29;40.28;100294.66;5052066;28;597;-56
2022/05/05 14:15:52;;;;;;;;;;;;;;;20.50;40.67;100283.72;5052302;28;1953;-55
2022/05/05 14:18:19;;;;;;;;;;;;;;;20.02;42.14;100258.63;5051939;28;871;-56
2022/05/05 14:20:45;;;;;;;;;;;;;;;20.00;42.28;100291.97;5052115;28;814;-57
2022/05/05 14:23:12;;;;;;;;;;;;;;;20.47;42.60;100293.06;5052294;28;908;-55
2022/05/05 14:25:39;;;;;;;;;;;;;;;20.84;41.77;100299.66;5052142;28;879;-56
2022/05/05 14:28:05;;;;;;;;;;;;;;;21.52;40.75;100296.94;5052351;28;802;-55
2022/05/05 14:30:31;;;;;;;;;;;;;;;21.67;39.90;100307.59;5051780;28;825;-56
2022/05/05 14:32:58;;;;;;;;;;;;;;;21.30;40.28;100310.31;5051907;28;822;-57
2022/05/05 14:35:25;;;;;;;;;;;;;;;21.29;41.07;100314.34;5051578;28;1949;-56
2022/05/05 14:37:51;;;;;;;;;;;;;;;21.13;39.53;100315.41;5051321;28;1457;-57
2022/05/05 14:40:18;;;;;;;;;;;;;;;20.49;40.51;100316.63;5051591;28;815;-56
2022/05/05 14:42:45;;;;;;;;;;;;;;;20.30;41.54;100312.16;5051726;28;826;-56
2022/05/05 14:45:16;;;;;;;;;;;;;;;20.26;41.62;100311.50;5051500;28;927;-56
2022/05/05 14:47:45;;;;;;;;;;;;;;;19.99;43.11;100312.84;5051586;28;1306;-55
2022/05/05 14:50:12;;;;;;;;;;;;;;;19.68;43.22;100316.28;5051565;28;861;-57
2022/05/05 14:52:41;;;;;;;;;;;;;;;19.15;43.80;100305.63;5051289;28;854;-56
2022/05/05 14:55:09;;;;;;;;;;;;;;;18.69;45.35;100313.44;5033445;28;1906;-56
2022/05/05 14:57:38;;;;;;;;;;;;;;;18.57;46.61;100317.78;5051398;28;866;-56
2022/05/05 15:00:07;;;;;;;;;;;;;;;18.71;45.94;100318.56;5051408;28;1003;-56
2022/05/05 15:02:34;;;;;;;;;;;;;;;18.74;46.69;100318.47;5051431;28;855;-56
2022/05/05 15:05:00;;;;;;;;;;;;;;;19.22;46.16;100320.63;5033995;28;889;-56
2022/05/05 15:07:27;;;;;;;;;;;;;;;18.79;47.32;100319.19;5051344;28;1067;-56
2022/05/05 15:09:54;;;;;;;;;;;;;;;18.44;48.38;100327.38;5051453;28;846;-56
2022/05/05 15:12:21;;;;;;;;;;;;;;;18.73;48.59;100322.53;5051321;28;920;-55
2022/05/05 15:14:48;;;;;;;;;;;;;;;19.62;47.25;100328.53;5050980;28;1878;-55
2022/05/05 15:17:14;;;;;;;;;;;;;;;20.63;44.16;100325.78;5051273;28;827;-55
2022/05/05 15:19:43;;;;;;;;;;;;;;;21.38;43.09;100329.22;5051109;28;910;-55
2022/05/05 15:22:10;;;;;;;;;;;;;;;21.27;43.61;100331.69;5051031;28;906;-55
2022/05/05 15:24:37;;;;;;;;;;;;;;;20.97;44.24;100333.28;5051054;28;923;-55
2022/05/05 15:27:04;;;;;;;;;;;;;;;21.63;42.35;100329.47;5055575;28;983;-55
2022/05/05 15:29:33;;;;;;;;;;;;;;;22.50;41.25;100330.88;5055097;28;794;-55
2022/05/05 15:32:00;;;;;;;;;;;;;;;23.07;40.17;100329.47;5055000;28;973;-55
2022/05/05 15:34:27;;;;;;;;;;;;;;;23.24;38.54;100331.44;5054837;28;1965;-55
2022/05/05 15:36:53;;;;;;;;;;;;;;;23.22;35.77;100330.34;5055028;28;802;-56
2022/05/05 15:39:22;;;;;;;;;;;;;;;22.92;35.17;100327.31;5054580;28;1201;-57